Time;durP1;ratioP1;P1;durP2;ratioP2;P2;SDS_P1;SDS_P2;PMS_P1;PMS_P2;Temp;Humidity;BMP_temperature;BMP_pressure;BME280_temperature;BME280_humidity;BME280_pressure;Samples;Min_cycle;Max_cycle;Signal;HPM_P1;HPM_P2
2022/04/29 00:00:39;;;;;;;1999.90;999.90;;;6.00;1.00;;;;;;4973067;28;20451;-77
2022/04/29 00:03:09;;;;;;;1999.90;947.53;;;6.00;1.00;;;;;;4973195;28;20050;-76
2022/04/29 00:05:35;;;;;;;1980.22;861.30;;;7.50;1.00;;;;;;4955401;28;20069;-79
2022/04/29 00:08:05;;;;;;;1999.90;910.40;;;6.00;1.00;;;;;;4972859;28;20527;-77
2022/04/29 00:10:32;;;;;;;1778.65;858.33;;;5.90;1.00;;;;;;4972633;28;20047;-77
2022/04/29 00:12:59;;;;;;;1999.90;981.03;;;5.90;1.00;;;;;;4956048;28;20086;-77
2022/04/29 00:15:26;;;;;;;1751.82;837.75;;;6.60;1.00;;;;;;4972753;28;20055;-77
2022/04/29 00:17:51;;;;;;;1999.90;947.92;;;5.90;1.00;;;;;;4973125;28;20085;-77
2022/04/29 00:20:18;;;;;;;1999.90;999.90;;;6.00;1.00;;;;;;4972593;28;20101;-77
2022/04/29 00:22:44;;;;;;;1999.90;999.90;;;7.60;1.00;;;;;;4972772;28;20057;-77
2022/04/29 00:25:11;;;;;;;1999.90;999.90;;;5.90;1.00;;;;;;4972986;28;20051;-78
2022/04/29 00:27:39;;;;;;;1999.90;999.90;;;6.30;1.00;;;;;;4972662;28;20061;-77
2022/04/29 00:30:12;;;;;;;1999.90;999.90;;;5.80;1.00;;;;;;4972974;28;20043;-77
2022/04/29 00:32:39;;;;;;;1999.90;999.90;;;5.80;1.00;;;;;;4972432;28;20043;-78
2022/04/29 00:35:07;;;;;;;1999.90;999.90;;;5.80;1.00;;;;;;4939720;28;20142;-77
2022/04/29 00:37:52;;;;;;;1999.90;972.53;;;5.80;1.00;;;;;;4972756;28;20061;-77
2022/04/29 00:40:20;;;;;;;1999.90;999.90;;;5.80;1.00;;;;;;4955826;28;20479;-77
2022/04/29 00:42:46;;;;;;;1999.90;999.90;;;7.20;1.00;;;;;;4972834;28;20399;-77
2022/04/29 00:45:13;;;;;;;1999.90;999.90;;;6.90;1.00;;;;;;4972706;28;20053;-78
2022/04/29 00:47:39;;;;;;;1999.90;999.90;;;5.40;1.00;;;;;;4955277;28;20050;-77
2022/04/29 00:50:06;;;;;;;1999.90;999.90;;;5.70;1.00;;;;;;4975848;28;20053;-78
2022/04/29 00:52:35;;;;;;;1999.90;999.90;;;5.60;1.00;;;;;;4976810;28;20459;-76
2022/04/29 00:55:06;;;;;;;1999.90;999.90;;;5.60;1.00;;;;;;4976868;28;20046;-76
2022/04/29 00:57:40;;;;;;;1999.90;999.90;;;5.60;1.00;;;;;;4975654;28;20066;-76
2022/04/29 01:00:09;;;;;;;1999.90;999.90;;;7.10;1.00;;;;;;4977130;28;20059;-76
2022/04/29 01:02:43;;;;;;;1999.90;997.90;;;5.50;1.00;;;;;;4976824;28;20058;-76
2022/04/29 01:05:14;;;;;;;1999.90;999.90;;;5.50;1.00;;;;;;4976959;28;20058;-76
2022/04/29 01:07:41;;;;;;;1999.90;999.90;;;6.20;1.00;;;;;;4976764;28;20066;-76
2022/04/29 01:10:08;;;;;;;1999.90;999.90;;;5.40;1.00;;;;;;4976792;28;20372;-76
2022/04/29 01:12:36;;;;;;;1999.90;987.00;;;5.30;1.00;;;;;;4975911;28;20441;-76
2022/04/29 01:15:08;;;;;;;1970.93;937.92;;;5.60;1.00;;;;;;4959239;28;20499;-76
2022/04/29 01:17:36;;;;;;;1999.90;999.90;;;5.20;1.00;;;;;;4976020;28;20058;-76
2022/04/29 01:20:10;;;;;;;1417.57;730.90;;;5.20;1.00;;;;;;4975962;28;20042;-76
2022/04/29 01:22:36;;;;;;;1970.75;938.85;;;4.90;1.00;;;;;;4976144;28;20050;-76
2022/04/29 01:25:03;;;;;;;1418.38;576.60;;;6.50;1.00;;;;;;4976136;28;20047;-76
2022/04/29 01:27:29;;;;;;;1403.13;653.05;;;5.10;1.00;;;;;;4975976;28;20458;-79
2022/04/29 01:30:07;;;;;;;1891.15;787.00;;;6.50;1.00;;;;;;4975990;28;20089;-76
2022/04/29 01:32:34;;;;;;;1287.00;743.97;;;4.80;1.00;;;;;;4975782;28;20050;-76
2022/04/29 01:35:00;;;;;;;1846.90;735.30;;;6.60;1.00;;;;;;4958670;28;20086;-76
2022/04/29 01:37:26;;;;;;;1999.90;999.90;;;5.00;1.00;;;;;;4958670;28;20053;-76
2022/04/29 01:39:52;;;;;;;1999.90;999.90;;;5.00;1.00;;;;;;4958358;28;20050;-76
2022/04/29 01:42:17;;;;;;;1999.90;999.90;;;5.00;1.00;;;;;;4975831;28;20050;-76
2022/04/29 01:44:45;;;;;;;1999.90;999.90;;;5.00;1.00;;;;;;4975519;28;20105;-76
2022/04/29 01:47:11;;;;;;;1354.18;788.22;;;6.40;1.00;;;;;;4975881;28;20053;-76
2022/04/29 01:49:37;;;;;;;1999.90;999.90;;;4.40;1.00;;;;;;4958314;28;20432;-79
2022/04/29 01:52:03;;;;;;;1999.90;999.90;;;4.90;1.00;;;;;;4975224;28;20145;-76
2022/04/29 01:54:29;;;;;;;1206.80;752.05;;;4.90;1.00;;;;;;4958320;28;20093;-76
2022/04/29 01:56:55;;;;;;;979.35;619.97;;;;;;;;;;4975174;28;20095;-76
2022/04/29 01:59:20;;;;;;;1018.50;616.38;;;4.90;1.00;;;;;;4975377;28;20164;-76
2022/04/29 02:01:47;;;;;;;1999.90;999.90;;;5.90;1.00;;;;;;4957720;28;20126;-76
2022/04/29 02:04:14;;;;;;;1990.57;999.90;;;4.80;1.00;;;;;;4975471;28;20193;-78
2022/04/29 02:06:39;;;;;;;1182.13;793.47;;;4.20;1.00;;;;;;4974858;28;20082;-76
2022/04/29 02:09:06;;;;;;;1318.38;816.13;;;4.70;1.00;;;;;;4975325;28;20094;-76
2022/04/29 02:11:32;;;;;;;1839.28;955.33;;;4.70;1.00;;;;;;4958317;28;20113;-76
2022/04/29 02:13:58;;;;;;;1588.18;570.92;;;3.40;1.00;;;;;;4975307;28;20042;-76
2022/04/29 02:16:24;;;;;;;1493.03;525.65;;;5.90;1.00;;;;;;4975303;28;20502;-76
2022/04/29 02:18:50;;;;;;;1605.10;573.17;;;;;;;;;;4974868;28;20558;-76
2022/04/29 02:21:16;;;;;;;1661.40;627.30;;;4.60;1.00;;;;;;4974585;28;20181;-76
2022/04/29 02:23:41;;;;;;;1448.85;565.97;;;6.40;1.00;;;;;;4974903;28;20161;-76
2022/04/29 02:26:07;;;;;;;1999.90;840.90;;;6.30;1.00;;;;;;4957939;28;20066;-76
2022/04/29 02:28:34;;;;;;;1122.32;756.85;;;4.10;1.00;;;;;;4975045;28;20043;-76
2022/04/29 02:31:00;;;;;;;1171.43;723.22;;;4.70;1.00;;;;;;4957397;28;20361;-76
2022/04/29 02:33:27;;;;;;;1116.40;671.88;;;5.30;1.00;;;;;;4974897;28;20057;-76
2022/04/29 02:35:53;;;;;;;1515.50;776.30;;;4.50;1.00;;;;;;4957330;28;20459;-76
2022/04/29 02:38:19;;;;;;;1372.47;755.25;;;4.90;1.00;;;;;;4957964;28;20043;-76
2022/04/29 02:40:45;;;;;;;1865.47;920.35;;;4.50;1.00;;;;;;4957499;28;20109;-76
2022/04/29 02:43:11;;;;;;;890.50;413.83;;;4.80;1.00;;;;;;4957783;28;20043;-76
2022/04/29 02:45:37;;;;;;;1999.90;999.90;;;4.70;1.00;;;;;;4973359;28;20086;-77
2022/04/29 02:48:04;;;;;;;1999.90;999.90;;;5.20;1.00;;;;;;4974667;28;20454;-76
2022/04/29 02:50:30;;;;;;;1756.75;871.80;;;4.80;1.00;;;;;;4974325;28;20176;-76
2022/04/29 02:52:56;;;;;;;1153.97;418.45;;;4.80;1.00;;;;;;4973946;28;20095;-76
2022/04/29 02:55:22;;;;;;;1191.90;422.42;;;4.80;1.00;;;;;;4957195;28;20457;-76
2022/04/29 02:57:48;;;;;;;721.00;351.98;;;5.20;1.00;;;;;;4974127;28;20050;-76
2022/04/29 03:00:14;;;;;;;931.80;320.05;;;4.80;1.00;;;;;;4974353;28;20133;-76
2022/04/29 03:02:40;;;;;;;1690.47;829.63;;;5.50;1.00;;;;;;4956987;28;20055;-76
2022/04/29 03:05:06;;;;;;;1753.25;849.35;;;6.50;1.00;;;;;;4972669;28;20043;-77
2022/04/29 03:07:33;;;;;;;1088.47;335.08;;;4.90;1.00;;;;;;4957330;28;20117;-77
2022/04/29 03:09:59;;;;;;;1999.90;999.90;;;7.20;1.00;;;;;;4973835;28;20055;-77
2022/04/29 03:12:25;;;;;;;1999.90;999.90;;;6.60;1.00;;;;;;4973587;28;20129;-78
2022/04/29 03:14:51;;;;;;;1678.78;816.33;;;5.80;1.00;;;;;;4940675;28;20189;-77
2022/04/29 03:20:02;;;;;;;1999.90;999.90;;;6.80;1.00;;;;;;4972828;28;20050;-77
2022/04/29 03:22:29;;;;;;;1999.90;999.90;;;4.70;1.00;;;;;;4974129;28;20046;-76
2022/04/29 03:24:55;;;;;;;1999.90;999.90;;;6.20;1.00;;;;;;4956643;28;20054;-77
2022/04/29 03:27:20;;;;;;;1688.80;813.90;;;4.60;1.00;;;;;;4956987;28;20185;-77
2022/04/29 03:29:47;;;;;;;1712.80;821.60;;;5.30;1.00;;;;;;4973735;28;20050;-77
2022/04/29 03:32:13;;;;;;;1999.90;999.90;;;4.50;1.00;;;;;;4973907;28;20055;-77
2022/04/29 03:34:39;;;;;;;1999.90;999.90;;;5.90;1.00;;;;;;4973696;28;20053;-80
2022/04/29 03:37:05;;;;;;;1999.90;999.90;;;4.50;1.00;;;;;;4957052;28;20121;-77
2022/04/29 03:39:31;;;;;;;1999.90;999.90;;;5.60;1.00;;;;;;4974303;28;20053;-77
2022/04/29 03:41:57;;;;;;;1674.95;832.45;;;3.60;1.00;;;;;;4956457;28;20535;-77
2022/04/29 03:44:22;;;;;;;1999.90;999.90;;;5.20;1.00;;;;;;4956637;28;20053;-77
2022/04/29 03:46:48;;;;;;;1999.90;999.90;;;4.90;1.00;;;;;;4956562;28;20658;-77
2022/04/29 03:51:58;;;;;;;1999.90;999.90;;;5.70;1.00;;;;;;4972983;28;20086;-77
2022/04/29 03:54:24;;;;;;;1999.90;999.90;;;6.20;1.00;;;;;;4956579;28;20094;-77
2022/04/29 03:56:51;;;;;;;1999.90;999.90;;;4.30;1.00;;;;;;4973430;28;20054;-77
2022/04/29 03:59:17;;;;;;;1999.90;999.90;;;3.90;1.00;;;;;;4973779;28;20322;-77
2022/04/29 04:01:42;;;;;;;1285.13;681.35;;;6.30;1.00;;;;;;4973542;28;20090;-78
2022/04/29 04:04:08;;;;;;;1999.90;999.90;;;4.20;1.00;;;;;;4973800;28;20487;-77
2022/04/29 04:06:49;;;;;;;1999.90;999.90;;;4.20;1.00;;;;;;4940525;28;20038;-77
2022/04/29 04:09:20;;;;;;;1999.90;999.90;;;5.40;1.00;;;;;;4973866;28;20073;-77
2022/04/29 04:11:46;;;;;;;1999.90;999.90;;;5.60;1.00;;;;;;4973383;28;20051;-77
2022/04/29 04:14:12;;;;;;;1999.90;999.90;;;5.50;1.00;;;;;;4973220;28;20117;-77
2022/04/29 04:16:38;;;;;;;1242.63;618.60;;;4.10;1.00;;;;;;4973350;28;20054;-77
2022/04/29 04:19:04;;;;;;;1999.90;999.90;;;4.10;1.00;;;;;;4972892;28;20106;-77
2022/04/29 04:21:30;;;;;;;1999.90;999.90;;;4.20;1.00;;;;;;4939605;28;20057;-77
2022/04/29 04:23:56;;;;;;;1999.90;999.90;;;4.10;1.00;;;;;;4971611;28;20394;-77
2022/04/29 04:26:22;;;;;;;1999.90;999.90;;;5.50;1.00;;;;;;4972982;28;20054;-77
2022/04/29 04:28:48;;;;;;;1999.90;999.90;;;4.70;1.00;;;;;;4972962;28;20043;-75
2022/04/29 04:31:14;;;;;;;1663.13;813.13;;;6.10;1.00;;;;;;4973014;28;20047;-76
2022/04/29 04:33:40;;;;;;;1999.90;999.90;;;5.50;1.00;;;;;;4973146;28;20508;-76
2022/04/29 04:36:06;;;;;;;1999.90;999.90;;;5.00;1.00;;;;;;4972458;28;20129;-76
2022/04/29 04:38:32;;;;;;;1624.03;800.80;;;4.40;1.00;;;;;;4955815;28;20059;-76
2022/04/29 04:40:58;;;;;;;1999.90;999.90;;;4.90;1.00;;;;;;4972471;28;20081;-76
2022/04/29 04:43:25;;;;;;;1999.90;999.90;;;5.50;1.00;;;;;;4973023;28;20047;-78
2022/04/29 04:45:51;;;;;;;1649.95;806.20;;;4.60;1.00;;;;;;4972473;28;20146;-77
2022/04/29 04:48:17;;;;;;;1999.90;999.90;;;6.80;1.00;;;;;;4955500;28;20097;-77
2022/04/29 04:50:44;;;;;;;1639.78;799.45;;;;;;;;;;4972125;28;20042;-81
2022/04/29 04:53:09;;;;;;;1232.18;577.53;;;4.80;1.00;;;;;;4971899;28;20476;-77
2022/04/29 04:55:39;;;;;;;1686.95;824.30;;;4.80;1.00;;;;;;4955640;28;20047;-77
2022/04/29 04:58:06;;;;;;;1999.90;999.90;;;4.90;1.00;;;;;;4972424;28;20402;-76
2022/04/29 05:00:32;;;;;;;1677.68;826.63;;;6.70;1.00;;;;;;4939482;28;20059;-77
2022/04/29 05:02:58;;;;;;;1252.20;593.25;;;5.30;1.00;;;;;;4939433;28;20165;-77
2022/04/29 05:05:23;;;;;;;1764.95;871.65;;;5.30;1.00;;;;;;4972738;28;20133;-77
2022/04/29 05:07:49;;;;;;;630.55;264.80;;;5.60;1.00;;;;;;4972468;28;20051;-77
2022/04/29 05:10:15;;;;;;;880.30;403.15;;;6.20;1.00;;;;;;4972670;28;20142;-77
2022/04/29 05:12:45;;;;;;;1153.03;587.97;;;6.10;1.00;;;;;;4955486;28;20082;-77
2022/04/29 05:15:13;;;;;;;891.35;424.27;;;6.80;1.00;;;;;;4955550;28;20050;-77
2022/04/29 05:17:40;;;;;;;1147.07;505.75;;;;;;;;;;4972605;28;20177;-77
2022/04/29 05:20:11;;;;;;;1666.53;694.05;;;6.60;1.00;;;;;;4954672;28;20042;-77
2022/04/29 05:22:37;;;;;;;1557.68;547.13;;;6.80;1.00;;;;;;4972487;28;20043;-76
2022/04/29 05:25:05;;;;;;;1915.47;648.20;;;7.00;1.00;;;;;;4972177;28;20161;-76
2022/04/29 05:27:31;;;;;;;669.42;179.27;;;7.20;1.00;;;;;;4939483;28;20113;-76
2022/04/29 05:29:57;;;;;;;1680.05;803.60;;;7.70;1.00;;;;;;4972023;28;20055;-76
2022/04/29 05:32:26;;;;;;;1999.90;999.90;;;7.70;1.00;;;;;;4939642;28;20194;-76
2022/04/29 05:34:52;;;;;;;1999.90;999.90;;;7.80;1.00;;;;;;4972805;28;20050;-76
2022/04/29 05:37:19;;;;;;;1999.90;999.90;;;7.50;1.00;;;;;;4975768;28;20043;-76
2022/04/29 05:42:29;;;;;;;1796.05;858.45;;;7.70;1.00;;;;;;4975932;28;20057;-76
2022/04/29 05:44:55;;;;;;;1999.90;999.90;;;8.90;1.00;;;;;;4975436;28;20051;-77
2022/04/29 05:47:21;;;;;;;1691.72;821.38;;;8.30;1.00;;;;;;4975743;28;20051;-76
2022/04/29 05:49:46;;;;;;;1688.18;828.05;;;7.90;1.00;;;;;;4957987;28;20116;-76
2022/04/29 05:52:12;;;;;;;1999.90;999.90;;;8.00;1.00;;;;;;4957606;28;20113;-77
2022/04/29 05:54:39;;;;;;;1999.90;999.90;;;8.00;1.00;;;;;;4958622;28;20050;-77
2022/04/29 05:57:05;;;;;;;1999.90;999.90;;;8.50;1.00;;;;;;4975538;28;20042;-76
2022/04/29 05:59:31;;;;;;;1999.90;999.90;;;8.10;1.00;;;;;;4958279;28;20053;-76
2022/04/29 06:01:58;;;;;;;1999.90;999.90;;;8.00;1.00;;;;;;4975226;28;20522;-76
2022/04/29 06:04:24;;;;;;;1999.90;999.90;;;9.80;1.00;;;;;;4942786;28;20480;-76
2022/04/29 06:06:50;;;;;;;1999.90;999.90;;;9.60;1.00;;;;;;4975284;28;20056;-77
2022/04/29 06:09:17;;;;;;;1999.90;999.90;;;8.40;1.00;;;;;;4958162;28;20097;-77
2022/04/29 06:11:43;;;;;;;1999.90;999.90;;;8.80;1.00;;;;;;4958009;28;20039;-77
2022/04/29 06:14:08;;;;;;;1999.90;999.90;;;8.40;1.00;;;;;;4957969;28;20483;-77
2022/04/29 06:16:34;;;;;;;1999.90;999.90;;;9.50;1.00;;;;;;4975321;28;20436;-76
2022/04/29 06:19:00;;;;;;;1999.90;999.90;;;8.40;1.00;;;;;;4957572;28;20137;-77
2022/04/29 06:21:26;;;;;;;1999.90;999.90;;;10.40;1.00;;;;;;4974806;28;20042;-77
2022/04/29 06:23:51;;;;;;;1999.90;922.80;;;8.70;1.00;;;;;;4957784;28;20086;-82
2022/04/29 06:26:17;;;;;;;1999.90;999.90;;;10.20;1.00;;;;;;4926091;28;20046;-77
2022/04/29 06:28:43;;;;;;;1999.90;999.90;;;8.80;1.00;;;;;;4974963;28;20066;-77
2022/04/29 06:31:09;;;;;;;1992.65;999.90;;;9.30;1.00;;;;;;4957432;28;20049;-77
2022/04/29 06:33:37;;;;;;;1999.90;999.90;;;9.00;1.00;;;;;;4974770;28;20110;-76
2022/04/29 06:36:03;;;;;;;1999.90;999.90;;;9.00;1.00;;;;;;4973822;28;20471;-76
2022/04/29 06:38:29;;;;;;;1999.90;999.90;;;9.20;1.00;;;;;;4957614;28;20039;-77
2022/04/29 06:40:56;;;;;;;1999.90;999.90;;;9.20;1.00;;;;;;4974192;28;20043;-77
2022/04/29 06:43:22;;;;;;;1999.90;999.90;;;9.40;1.00;;;;;;4974794;28;20046;-77
2022/04/29 06:45:49;;;;;;;1822.78;999.90;;;9.30;1.00;;;;;;4974008;28;20050;-77
2022/04/29 06:48:15;;;;;;;1888.18;999.90;;;9.30;1.00;;;;;;4956594;28;20054;-77
2022/04/29 06:50:41;;;;;;;1999.90;999.90;;;9.50;1.00;;;;;;4940898;28;20495;-76
2022/04/29 06:53:07;;;;;;;1999.90;999.90;;;9.50;1.00;;;;;;4956788;28;20101;-76
2022/04/29 06:55:40;;;;;;;1946.05;960.13;;;9.60;1.00;;;;;;4957337;28;20055;-76
2022/04/29 06:58:07;;;;;;;1736.75;999.90;;;9.70;1.00;;;;;;4956735;28;20042;-76
2022/04/29 07:00:34;;;;;;;1484.72;989.38;;;9.80;1.00;;;;;;4974290;28;20086;-78
2022/04/29 07:03:03;;;;;;;1753.55;999.90;;;9.90;1.00;;;;;;4974158;28;20133;-77
2022/04/29 07:05:32;;;;;;;1999.90;999.90;;;10.00;1.00;;;;;;4974057;28;20090;-76
2022/04/29 07:07:59;;;;;;;1579.55;999.90;;;10.60;1.00;;;;;;4974193;28;20086;-78
2022/04/29 07:10:25;;;;;;;1591.37;999.90;;;10.40;1.00;;;;;;4974760;28;20127;-78
2022/04/29 07:12:50;;;;;;;1032.60;919.70;;;10.50;1.00;;;;;;4956840;28;20078;-78
2022/04/29 07:15:17;;;;;;;1134.60;954.03;;;10.60;1.00;;;;;;4973819;28;20055;-78
2022/04/29 07:17:44;;;;;;;1924.35;981.38;;;10.70;1.00;;;;;;4973925;28;20133;-79
2022/04/29 07:20:11;;;;;;;1808.45;999.90;;;10.80;1.00;;;;;;4956189;28;20094;-78
2022/04/29 07:22:40;;;;;;;1457.93;998.90;;;10.80;1.00;;;;;;4973710;28;20508;-76
2022/04/29 07:25:11;;;;;;;1375.65;994.83;;;12.30;1.00;;;;;;4973435;28;20043;-76
2022/04/29 07:27:38;;;;;;;979.05;882.30;;;10.90;1.00;;;;;;4956901;28;20067;-76
2022/04/29 07:30:05;;;;;;;1433.10;999.90;;;11.00;1.00;;;;;;4973483;28;20051;-76
2022/04/29 07:32:31;;;;;;;1412.13;999.90;;;11.20;1.00;;;;;;4956728;28;20518;-76
2022/04/29 07:43:11;;;;;;;838.08;762.50;;;13.90;99.90;;;;;;4973465;28;20055;-75
2022/04/29 07:45:42;;;;;;;1009.67;906.72;;;14.10;99.90;;;;;;4973709;28;20055;-76
2022/04/29 07:48:08;;;;;;;988.72;890.35;;;13.90;99.90;;;;;;4973197;28;20112;-76
2022/04/29 07:50:35;;;;;;;734.08;680.58;;;13.70;99.90;;;;;;4955894;28;20097;-77
2022/04/29 07:53:02;;;;;;;749.85;685.85;;;13.60;99.90;;;;;;4973373;28;20059;-78
2022/04/29 07:55:28;;;;;;;679.08;624.17;;;13.40;99.90;;;;;;4956284;28;20051;-76
2022/04/29 07:57:54;;;;;;;507.50;471.35;;;13.30;99.90;;;;;;4973088;28;20043;-76
2022/04/29 08:00:20;;;;;;;846.17;758.50;;;13.10;99.90;;;;;;4973009;28;20050;-76
2022/04/29 08:02:45;;;;;;;682.85;625.85;;;12.90;99.90;;;;;;4956376;28;20046;-76
2022/04/29 08:05:11;;;;;;;588.60;548.85;;;12.60;99.90;;;;;;4972785;28;20045;-77
2022/04/29 08:07:37;;;;;;;559.10;521.50;;;12.60;99.90;;;;;;4973307;28;20046;-77
2022/04/29 08:10:04;;;;;;;408.38;382.90;;;12.60;99.90;;;;;;4972964;28;20428;-77
2022/04/29 08:12:29;;;;;;;763.17;627.15;;;12.60;99.90;;;;;;4973233;28;20180;-76
2022/04/29 08:14:59;;;;;;;692.35;622.80;;;;;;;;;;4973282;28;20070;-77
2022/04/29 08:17:27;;;;;;;624.42;537.35;;;12.70;99.90;;;;;;4972997;28;20193;-77
2022/04/29 08:19:53;;;;;;;951.13;727.22;;;10.80;99.90;;;;;;4973066;28;20055;-77
2022/04/29 08:22:20;;;;;;;425.27;397.02;;;12.90;99.90;;;;;;4971744;28;20130;-77
2022/04/29 08:24:46;;;;;;;421.65;393.58;;;13.00;99.90;;;;;;4956187;28;20047;-77
2022/04/29 08:27:12;;;;;;;448.13;418.80;;;13.30;99.90;;;;;;4955758;28;20125;-77
2022/04/29 08:29:38;;;;;;;382.65;359.17;;;13.50;99.90;;;;;;4955614;28;20050;-78
2022/04/29 08:32:05;;;;;;;578.92;541.83;;;13.80;99.90;;;;;;4955758;28;20043;-80
2022/04/29 08:34:31;;;;;;;359.05;337.88;;;14.00;99.90;;;;;;4973114;28;20074;-77
2022/04/29 08:36:57;;;;;;;257.17;242.93;;;13.80;99.90;;;;;;4955446;28;20042;-77
2022/04/29 08:39:23;;;;;;;528.22;481.08;;;14.00;99.90;;;;;;4940031;28;20073;-78
2022/04/29 08:41:52;;;;;;;183.18;172.02;;;14.00;99.90;;;;;;4939846;28;20047;-78
2022/04/29 08:44:21;;;;;;;201.30;187.02;;;13.90;99.90;;;;;;4972876;28;20046;-78
2022/04/29 08:46:47;;;;;;;237.80;223.80;;;13.60;99.90;;;;;;4972999;28;20053;-78
2022/04/29 08:49:15;;;;;;;147.15;138.65;;;13.60;99.90;;;;;;4955333;28;20452;-78
2022/04/29 08:51:41;;;;;;;139.80;131.55;;;13.60;99.90;;;;;;4955391;28;20101;-78
2022/04/29 08:54:06;;;;;;;158.02;149.48;;;13.60;99.90;;;;;;4939631;28;20062;-79
2022/04/29 08:59:20;;;;;;;214.20;198.90;;;13.80;99.90;;;;;;4973014;28;20113;-78
2022/04/29 09:01:46;;;;;;;188.60;178.23;;;13.90;99.90;;;;;;4972943;28;20047;-77
2022/04/29 09:04:12;;;;;;;196.88;185.95;;;14.00;99.90;;;;;;4972882;28;20235;-78
2022/04/29 09:06:48;;;;;;;192.30;181.25;;;14.00;99.90;;;;;;4955603;28;20541;-78
2022/04/29 09:09:13;;;;;;;490.52;448.17;;;14.00;99.90;;;;;;4972785;28;20055;-78
2022/04/29 09:11:39;;;;;;;275.90;260.67;;;14.10;99.90;;;;;;4959436;28;20514;-79
2022/04/29 09:14:25;;;;;;;303.27;285.02;;;14.20;99.90;;;;;;4976655;28;20047;-78
2022/04/29 09:16:50;;;;;;;367.35;344.38;;;14.20;99.90;;;;;;4943478;28;20097;-76
2022/04/29 09:19:30;;;;;;;274.58;259.10;;;14.10;99.90;;;;;;4976222;28;20133;-76
2022/04/29 09:22:07;;;;;;;415.33;386.75;;;14.10;99.90;;;;;;4976101;28;20145;-76
2022/04/29 09:24:33;;;;;;;449.02;421.83;;;14.20;99.90;;;;;;4976036;28;20042;-77
2022/04/29 09:27:03;;;;;;;513.10;475.85;;;14.30;99.90;;;;;;4959046;28;20470;-76
2022/04/29 09:29:29;;;;;;;499.52;459.95;;;14.20;99.90;;;;;;4976031;28;20104;-76
2022/04/29 09:31:59;;;;;;;524.50;491.15;;;14.20;99.90;;;;;;4958882;28;20046;-76
2022/04/29 09:34:46;;;;;;;514.95;479.02;;;14.10;99.90;;;;;;4958741;28;20059;-77
2022/04/29 09:37:17;;;;;;;491.95;454.98;;;14.10;99.90;;;;;;4975796;28;20042;-77
2022/04/29 09:39:56;;;;;;;513.38;478.38;;;14.10;99.90;;;;;;4976260;28;20093;-77
2022/04/29 09:42:22;;;;;;;481.08;447.83;;;14.20;99.90;;;;;;4958071;28;20086;-77
2022/04/29 09:44:48;;;;;;;937.95;849.60;;;14.30;99.90;;;;;;4958683;28;20118;-77
2022/04/29 09:47:20;;;;;;;734.15;669.42;;;14.40;99.90;;;;;;4975680;28;20506;-78
2022/04/29 09:49:58;;;;;;;524.45;489.05;;;14.50;99.90;;;;;;4975842;28;20086;-78
2022/04/29 09:52:25;;;;;;;544.17;508.52;;;14.60;99.90;;;;;;4957799;28;20139;-79
2022/04/29 09:54:52;;;;;;;790.35;717.80;;;14.60;99.90;;;;;;4966560;28;20051;-77
2022/04/29 09:57:20;;;;;;;511.23;473.08;;;14.40;99.90;;;;;;4965434;28;20051;-77
2022/04/29 09:59:46;;;;;;;;;;;14.40;99.90;;;;;;4967332;28;20074;-78
2022/04/29 10:02:14;;;;;;;416.73;389.10;;;14.50;99.90;;;;;;4964708;28;19929;-77
2022/04/29 10:04:43;;;;;;;613.85;570.38;;;14.30;99.90;;;;;;4982730;28;20046;-80
2022/04/29 10:07:14;;;;;;;698.25;639.28;;;14.30;99.90;;;;;;4980373;28;20054;-77
2022/04/29 10:09:44;;;;;;;763.05;688.47;;;14.30;99.90;;;;;;4976632;28;20240;-77
2022/04/29 10:12:16;;;;;;;534.90;497.40;;;14.20;99.90;;;;;;4976131;28;20086;-78
2022/04/29 10:14:43;;;;;;;466.67;432.70;;;14.20;99.90;;;;;;4975549;28;20042;-78
2022/04/29 10:23:09;;;;;;;671.97;617.53;;;14.40;99.90;;;;;;4974515;28;20119;-75
2022/04/29 10:25:38;;;;;;;616.70;568.70;;;14.30;99.90;;;;;;4957701;28;20051;-75
2022/04/29 10:28:05;;;;;;;696.97;638.22;;;14.20;99.90;;;;;;4974987;28;20499;-77
2022/04/29 10:30:37;;;;;;;620.72;571.97;;;14.20;99.90;;;;;;4957770;28;20046;-78
2022/04/29 10:33:09;;;;;;;636.13;589.97;;;14.00;99.90;;;;;;4975379;28;20105;-78
2022/04/29 10:35:49;;;;;;;542.15;504.55;;;13.90;99.90;;;;;;4974601;28;20097;-77
2022/04/29 10:38:31;;;;;;;608.78;563.35;;;13.80;99.90;;;;;;4958193;28;20055;-77
2022/04/29 10:41:13;;;;;;;645.58;594.65;;;13.90;99.90;;;;;;4975177;28;20034;-77
2022/04/29 10:43:51;;;;;;;859.22;776.92;;;13.90;99.90;;;;;;4957561;28;20054;-77
2022/04/29 10:46:39;;;;;;;1284.78;972.83;;;14.20;99.90;;;;;;4974820;28;20384;-80
2022/04/29 10:49:24;;;;;;;963.60;859.78;;;14.00;99.90;;;;;;4975101;28;20055;-77
2022/04/29 10:51:56;;;;;;;520.15;481.65;;;14.10;99.90;;;;;;4974274;28;20062;-78
2022/04/29 10:54:58;;;;;;;538.75;498.92;;;14.00;99.90;;;;;;4974560;28;20054;-77
2022/04/29 10:57:44;;;;;;;394.52;365.13;;;14.00;99.90;;;;;;4944273;28;20137;-78
2022/04/29 11:00:13;;;;;;;811.80;732.03;;;14.10;99.90;;;;;;4957656;28;20050;-77
2022/04/29 11:02:39;;;;;;;557.60;511.92;;;14.10;99.90;;;;;;4974354;28;20130;-77
2022/04/29 11:05:07;;;;;;;818.72;741.65;;;14.10;99.90;;;;;;4957369;28;20566;-77
2022/04/29 11:07:44;;;;;;;1271.80;998.63;;;14.10;99.90;;;;;;4956899;28;20058;-77
2022/04/29 11:10:15;;;;;;;536.10;493.55;;;14.10;99.90;;;;;;4974579;28;20043;-77
2022/04/29 11:12:52;;;;;;;671.03;617.15;;;14.00;99.90;;;;;;4957251;28;20051;-78
2022/04/29 11:15:20;;;;;;;831.33;749.47;;;14.00;99.90;;;;;;4957342;28;20043;-77
2022/04/29 11:17:46;;;;;;;658.80;601.83;;;13.80;99.90;;;;;;4957332;28;20054;-77
2022/04/29 11:20:32;;;;;;;510.67;474.83;;;13.60;99.90;;;;;;4974040;28;20138;-77
2022/04/29 11:25:48;;;;;;;1096.57;977.67;;;13.20;99.90;;;;;;4973913;28;20109;-77
2022/04/29 11:28:15;;;;;;;540.42;500.50;;;13.20;99.90;;;;;;4956918;28;20054;-78
2022/04/29 11:30:41;;;;;;;1009.97;911.55;;;13.10;99.90;;;;;;4940706;28;20055;-77
2022/04/29 11:33:06;;;;;;;974.53;877.03;;;13.10;99.90;;;;;;4973684;28;20053;-78
2022/04/29 11:35:32;;;;;;;1154.07;997.35;;;13.10;99.90;;;;;;4973518;28;20058;-77
2022/04/29 11:37:58;;;;;;;1132.50;997.58;;;13.10;99.90;;;;;;4973946;28;20046;-76
2022/04/29 11:40:26;;;;;;;1146.93;993.17;;;13.20;99.90;;;;;;4956314;28;20070;-76
2022/04/29 11:42:52;;;;;;;1257.40;999.90;;;13.20;99.90;;;;;;4973991;28;20101;-76
2022/04/29 11:45:22;;;;;;;1230.72;999.90;;;13.30;99.90;;;;;;4940558;28;20495;-76
2022/04/29 11:47:48;;;;;;;972.63;877.88;;;13.40;99.90;;;;;;4973978;28;20487;-77
2022/04/29 11:50:14;;;;;;;1002.05;871.90;;;13.50;99.90;;;;;;4956036;28;20086;-77
2022/04/29 11:52:40;;;;;;;909.97;828.42;;;13.70;99.90;;;;;;4955595;28;20113;-77
2022/04/29 11:55:07;;;;;;;1113.65;996.25;;;13.80;99.90;;;;;;4940521;28;20054;-77
2022/04/29 11:57:41;;;;;;;722.33;660.60;;;14.10;99.90;;;;;;4973200;28;20057;-77
2022/04/29 12:00:08;;;;;;;642.15;595.30;;;14.70;99.90;;;;;;4956188;28;20594;-76
2022/04/29 12:02:34;;;;;;;671.13;621.35;;;15.20;99.90;;;;;;4972997;28;20396;-76
2022/04/29 12:05:00;;;;;;;883.90;802.08;;;15.40;99.90;;;;;;4972925;28;20051;-77
2022/04/29 12:07:29;;;;;;;1017.70;910.20;;;15.20;99.90;;;;;;4955839;28;20508;-77
2022/04/29 12:09:55;;;;;;;803.47;729.00;;;15.10;99.90;;;;;;4973568;28;20059;-77
2022/04/29 12:12:29;;;;;;;730.00;667.63;;;14.90;99.90;;;;;;4940177;28;20085;-77
2022/04/29 12:14:55;;;;;;;815.17;702.83;;;14.60;99.90;;;;;;4973367;28;20059;-76
2022/04/29 12:17:36;;;;;;;598.03;540.35;;;14.50;99.90;;;;;;4956013;28;20059;-78
2022/04/29 12:20:03;;;;;;;588.22;532.83;;;14.30;99.90;;;;;;4973021;28;20200;-76
2022/04/29 12:22:31;;;;;;;968.13;852.17;;;14.20;99.90;;;;;;4972713;28;20082;-77
2022/04/29 12:25:16;;;;;;;396.35;365.10;;;14.10;99.90;;;;;;4972962;28;20281;-77
2022/04/29 12:27:41;;;;;;;1192.55;970.05;;;14.00;99.90;;;;;;4972874;28;20042;-77
2022/04/29 12:36:15;;;;;;;522.20;481.70;;;14.10;99.90;;;;;;4972920;28;20117;-77
2022/04/29 12:38:45;;;;;;;539.22;492.23;;;14.20;99.90;;;;;;4955513;28;20074;-77
2022/04/29 12:41:21;;;;;;;599.72;555.97;;;14.40;99.90;;;;;;4955547;28;20131;-77
2022/04/29 12:43:47;;;;;;;481.65;447.52;;;14.50;99.90;;;;;;4972760;28;20142;-77
2022/04/29 12:46:18;;;;;;;916.80;826.90;;;14.50;99.90;;;;;;4976184;28;20086;-77
2022/04/29 12:48:52;;;;;;;643.55;599.13;;;14.60;99.90;;;;;;4976553;28;20129;-78
2022/04/29 12:51:28;;;;;;;520.83;484.73;;;14.70;99.90;;;;;;4976650;28;20093;-78
2022/04/29 12:53:59;;;;;;;715.97;645.08;;;14.90;99.90;;;;;;4976904;28;20063;-78